createdAt,value
2023-05-03T00:01:44.135Z,5.22
2023-05-03T00:04:10.979Z,4.88
2023-05-03T00:06:37.594Z,4.82
2023-05-03T00:09:04.385Z,5.68
2023-05-03T00:11:30.910Z,3.38
2023-05-03T00:13:57.526Z,3.22
2023-05-03T00:16:24.129Z,4.78
2023-05-03T00:18:50.762Z,3.75
2023-05-03T00:21:17.403Z,5.68
2023-05-03T00:23:44.089Z,6.35
2023-05-03T00:26:10.872Z,6.75
2023-05-03T00:28:37.562Z,2.78
2023-05-03T00:31:11.028Z,4.45
2023-05-03T00:33:38.893Z,5.47
2023-05-03T00:36:09.466Z,4.13
2023-05-03T00:38:36.641Z,4.90
2023-05-03T00:41:03.519Z,4.50
2023-05-03T00:43:30.123Z,6.07
2023-05-03T00:46:08.275Z,5.65
2023-05-03T00:48:42.454Z,4.38
2023-05-03T00:51:13.078Z,6.80
2023-05-03T00:53:40.472Z,5.68
2023-05-03T00:56:07.457Z,4.75
2023-05-03T00:58:36.369Z,5.55
2023-05-03T01:01:03.378Z,7.10
2023-05-03T01:03:29.997Z,3.38
2023-05-03T01:06:13.582Z,5.63
2023-05-03T01:09:10.768Z,5.45
2023-05-03T01:12:14.142Z,6.20
2023-05-03T01:14:49.699Z,3.88
2023-05-03T01:17:20.085Z,4.82
2023-05-03T01:19:54.603Z,6.63
2023-05-03T01:22:34.160Z,5.97
2023-05-03T01:25:12.038Z,6.82
2023-05-03T01:27:40.455Z,4.90
2023-05-03T01:30:11.594Z,5.30
2023-05-03T01:32:41.128Z,6.10
2023-05-03T01:35:29.349Z,6.45
2023-05-03T01:37:57.568Z,8.05
2023-05-03T01:40:28.022Z,5.88
2023-05-03T01:42:56.619Z,4.53
2023-05-03T01:47:50.037Z,13.70
2023-05-03T01:50:17.713Z,6.97
2023-05-03T01:52:45.288Z,6.25
2023-05-03T01:55:11.960Z,6.43
2023-05-03T01:57:38.514Z,6.43
2023-05-03T02:00:05.759Z,9.95
2023-05-03T02:02:32.566Z,6.63
2023-05-03T02:04:59.323Z,8.68
2023-05-03T02:07:25.982Z,7.65
2023-05-03T02:09:52.532Z,8.13
2023-05-03T02:12:19.121Z,8.02
2023-05-03T02:14:45.693Z,11.55
2023-05-03T02:17:12.392Z,7.05
2023-05-03T02:19:39.072Z,6.45
2023-05-03T02:22:05.921Z,5.60
2023-05-03T02:24:36.089Z,4.47
2023-05-03T02:27:06.184Z,4.53
2023-05-03T02:29:32.862Z,3.25
2023-05-03T02:31:59.437Z,7.25
2023-05-03T02:34:27.263Z,4.43
2023-05-03T02:36:53.937Z,7.22
2023-05-03T02:39:20.618Z,5.40
2023-05-03T02:41:47.906Z,8.15
2023-05-03T02:44:14.658Z,6.43
2023-05-03T02:46:42.196Z,6.22
2023-05-03T02:49:09.503Z,5.53
2023-05-03T02:51:36.366Z,8.20
2023-05-03T02:54:03.441Z,7.57
2023-05-03T02:56:30.014Z,9.40
2023-05-03T02:58:57.527Z,6.00
2023-05-03T03:01:24.322Z,9.45
2023-05-03T03:03:51.074Z,10.07
2023-05-03T03:06:17.755Z,7.32
2023-05-03T03:08:44.291Z,5.60
2023-05-03T03:11:10.951Z,7.20
2023-05-03T03:13:39.843Z,7.57
2023-05-03T03:18:37.650Z,9.18
2023-05-03T03:21:04.507Z,7.32
2023-05-03T03:23:31.255Z,5.13
2023-05-03T03:25:57.847Z,5.05
2023-05-03T03:28:24.461Z,8.10
2023-05-03T03:30:51.176Z,4.68
2023-05-03T03:33:17.938Z,5.50
2023-05-03T03:35:44.710Z,6.40
2023-05-03T03:38:11.325Z,8.20
2023-05-03T03:40:37.963Z,7.80
2023-05-03T03:43:04.490Z,6.05
2023-05-03T03:45:31.069Z,9.93
2023-05-03T03:47:58.295Z,5.60
2023-05-03T03:50:26.141Z,7.65
2023-05-03T03:52:52.760Z,6.93
2023-05-03T03:55:19.450Z,5.97
2023-05-03T03:57:46.184Z,5.93
2023-05-03T04:00:13.306Z,3.90
2023-05-03T04:02:40.027Z,5.35
2023-05-03T04:05:08.094Z,5.65
2023-05-03T04:07:34.684Z,5.78
2023-05-03T04:10:01.641Z,10.68
2023-05-03T04:12:28.475Z,6.80
2023-05-03T04:14:57.285Z,7.00
2023-05-03T04:17:23.898Z,5.25
2023-05-03T04:19:50.608Z,6.30
2023-05-03T04:22:17.164Z,7.57
2023-05-03T04:24:43.970Z,8.20
2023-05-03T04:27:11.437Z,7.55
2023-05-03T04:29:38.643Z,7.53
2023-05-03T04:32:14.202Z,4.93
2023-05-03T04:34:42.924Z,7.22
2023-05-03T04:37:15.179Z,6.80
2023-05-03T04:39:41.756Z,4.82
2023-05-03T04:42:09.009Z,6.80
2023-05-03T04:44:35.912Z,11.98
2023-05-03T04:47:02.810Z,6.97
2023-05-03T04:49:29.555Z,6.97
2023-05-03T04:51:56.499Z,7.55
2023-05-03T04:54:24.610Z,8.32
2023-05-03T04:56:51.666Z,8.65
2023-05-03T04:59:19.481Z,5.72
2023-05-03T05:01:51.424Z,5.28
2023-05-03T05:04:19.738Z,7.15
2023-05-03T05:06:46.485Z,8.98
2023-05-03T05:09:28.678Z,3.08
2023-05-03T05:11:57.289Z,8.10
2023-05-03T05:14:24.265Z,3.90
2023-05-03T05:16:51.115Z,5.90
2023-05-03T05:19:17.870Z,10.32
2023-05-03T05:21:44.548Z,8.18
2023-05-03T05:24:12.392Z,7.72
2023-05-03T05:26:39.111Z,5.57
2023-05-03T05:29:06.364Z,8.85
2023-05-03T05:31:33.118Z,3.70
2023-05-03T05:34:00.610Z,6.35
2023-05-03T05:36:29.294Z,8.93
2023-05-03T05:38:55.974Z,3.22
2023-05-03T05:41:22.642Z,2.67
2023-05-03T05:43:49.767Z,5.65
2023-05-03T05:46:16.920Z,7.68
2023-05-03T05:48:43.591Z,11.18
2023-05-03T05:51:10.200Z,8.18
2023-05-03T05:53:37.749Z,6.13
2023-05-03T05:56:06.808Z,5.18
2023-05-03T05:58:33.466Z,3.95
2023-05-03T06:01:03.894Z,5.65
2023-05-03T06:03:31.831Z,4.30
2023-05-03T06:05:58.863Z,5.75
2023-05-03T06:08:25.907Z,3.28
2023-05-03T06:10:53.952Z,6.22
2023-05-03T06:13:20.912Z,8.23
2023-05-03T06:15:47.763Z,4.40
2023-05-03T06:18:19.201Z,3.95
2023-05-03T06:20:51.436Z,6.03
2023-05-03T06:23:18.920Z,7.22
2023-05-03T06:25:48.781Z,4.05
2023-05-03T06:28:16.588Z,3.13
2023-05-03T06:30:52.197Z,6.22
2023-05-03T06:33:18.976Z,3.90
2023-05-03T06:35:47.279Z,5.22
2023-05-03T06:40:41.496Z,7.60
2023-05-03T06:43:08.262Z,4.57
2023-05-03T06:45:35.413Z,5.20
2023-05-03T06:48:02.099Z,3.88
2023-05-03T06:50:28.781Z,3.15
2023-05-03T06:52:56.650Z,2.17
2023-05-03T06:55:23.535Z,6.03
2023-05-03T06:57:52.861Z,4.15
2023-05-03T07:00:21.622Z,6.57
2023-05-03T07:05:18.849Z,6.47
2023-05-03T07:07:46.264Z,5.30
2023-05-03T07:10:12.871Z,4.55
2023-05-03T07:12:39.616Z,7.22
2023-05-03T07:15:07.090Z,6.10
2023-05-03T07:17:34.028Z,6.38
2023-05-03T07:20:00.716Z,5.97
2023-05-03T07:22:28.452Z,2.95
2023-05-03T07:24:58.915Z,6.55
2023-05-03T07:27:27.796Z,5.40
2023-05-03T07:29:54.805Z,2.88
2023-05-03T07:32:24.569Z,6.30
2023-05-03T07:34:51.627Z,5.63
2023-05-03T07:37:18.500Z,5.72
2023-05-03T07:39:45.859Z,4.18
2023-05-03T07:42:12.514Z,6.13
2023-05-03T07:44:39.519Z,3.55
2023-05-03T07:47:08.483Z,5.72
2023-05-03T07:49:37.960Z,3.35
2023-05-03T07:52:04.630Z,4.47
2023-05-03T07:54:31.334Z,6.45
2023-05-03T07:56:58.983Z,6.10
2023-05-03T07:59:25.515Z,5.65
2023-05-03T08:01:52.536Z,3.95
2023-05-03T08:04:19.343Z,3.67
2023-05-03T08:06:46.377Z,7.57
2023-05-03T08:09:14.112Z,3.10
2023-05-03T08:11:43.213Z,4.13
2023-05-03T08:14:10.703Z,4.43
2023-05-03T08:16:37.998Z,6.90
2023-05-03T08:19:05.002Z,8.38
2023-05-03T08:21:33.502Z,5.65
2023-05-03T08:24:01.138Z,5.15
2023-05-03T08:26:29.869Z,5.50
2023-05-03T08:28:56.777Z,5.88
2023-05-03T08:31:24.699Z,3.60
2023-05-03T08:33:52.432Z,6.25
2023-05-03T08:36:19.039Z,3.25
2023-05-03T08:38:46.058Z,4.68
2023-05-03T08:41:21.693Z,5.68
2023-05-03T08:43:52.716Z,2.65
2023-05-03T08:46:19.550Z,3.80
2023-05-03T08:48:49.408Z,3.20
2023-05-03T08:51:21.792Z,4.85
2023-05-03T08:53:48.998Z,3.10
2023-05-03T08:56:33.398Z,3.15
2023-05-03T08:59:07.585Z,4.50
2023-05-03T09:04:04.284Z,3.50
2023-05-03T09:06:33.275Z,5.32
2023-05-03T09:09:01.240Z,4.10
2023-05-03T09:11:32.486Z,7.72
2023-05-03T09:14:21.321Z,5.78
2023-05-03T09:16:48.467Z,4.55
2023-05-03T09:19:16.150Z,5.65
2023-05-03T09:21:50.685Z,2.95
2023-05-03T09:24:20.561Z,4.70
2023-05-03T09:26:51.067Z,5.25
2023-05-03T09:29:32.509Z,4.00
2023-05-03T09:32:02.766Z,4.65
2023-05-03T09:34:31.717Z,6.15
2023-05-03T09:37:00.389Z,5.70
2023-05-03T09:39:27.314Z,5.97
2023-05-03T09:41:54.495Z,5.90
2023-05-03T09:47:22.013Z,4.53
2023-05-03T09:49:49.912Z,7.72
2023-05-03T09:52:16.643Z,5.82
2023-05-03T09:54:50.986Z,4.95
2023-05-03T09:59:47.713Z,3.58
2023-05-03T10:02:17.377Z,5.85
2023-05-03T10:04:51.625Z,5.05
2023-05-03T10:07:28.445Z,3.63
2023-05-03T10:10:03.895Z,4.30
2023-05-03T10:12:30.708Z,3.10
2023-05-03T10:15:01.372Z,3.60
2023-05-03T10:17:47.680Z,5.07
2023-05-03T10:20:20.876Z,4.65
2023-05-03T10:23:14.386Z,2.92
2023-05-03T10:26:07.157Z,4.72
2023-05-03T10:28:34.398Z,6.53
2023-05-03T10:31:02.110Z,4.20
2023-05-03T10:33:32.727Z,5.35
2023-05-03T10:36:01.390Z,4.22
2023-05-03T10:38:29.585Z,4.35
2023-05-03T10:40:56.926Z,3.53
2023-05-03T10:43:32.525Z,3.10
2023-05-03T10:45:59.669Z,4.30
2023-05-03T10:48:28.558Z,6.68
2023-05-03T10:50:56.544Z,3.88
2023-05-03T10:53:39.363Z,7.95
2023-05-03T10:56:12.260Z,5.57
2023-05-03T10:58:47.705Z,7.18
2023-05-03T11:01:17.178Z,3.55
2023-05-03T11:03:50.046Z,6.15
2023-05-03T11:06:37.230Z,3.83
2023-05-03T11:09:06.750Z,3.90
2023-05-03T11:14:04.027Z,3.80
2023-05-03T11:16:32.328Z,5.00
2023-05-03T11:21:27.320Z,2.55
2023-05-03T11:23:53.954Z,4.43
2023-05-03T11:26:26.469Z,4.35
2023-05-03T11:28:54.210Z,3.90
2023-05-03T11:31:21.387Z,6.28
2023-05-03T11:33:49.931Z,4.40
2023-05-03T11:38:45.195Z,2.63
2023-05-03T11:41:17.449Z,3.67
2023-05-03T11:43:45.580Z,6.30
2023-05-03T11:46:14.762Z,3.30
2023-05-03T11:48:44.130Z,2.92
2023-05-03T11:51:11.943Z,4.38
2023-05-03T11:53:42.856Z,4.88
2023-05-03T11:56:21.934Z,5.30
2023-05-03T11:58:57.530Z,4.80
2023-05-03T12:01:26.498Z,3.00
2023-05-03T12:04:02.466Z,3.30
2023-05-03T12:06:34.221Z,6.65
2023-05-03T12:09:03.950Z,2.90
2023-05-03T12:11:33.533Z,3.65
2023-05-03T12:14:03.103Z,5.18
2023-05-03T12:16:47.482Z,5.07
2023-05-03T12:19:34.841Z,4.45
2023-05-03T12:22:23.638Z,3.47
2023-05-03T12:25:00.351Z,3.17
2023-05-03T12:27:32.555Z,3.47
2023-05-03T12:30:01.384Z,5.18
2023-05-03T12:32:28.590Z,3.90
2023-05-03T12:35:01.881Z,5.28
2023-05-03T12:37:33.178Z,3.00
2023-05-03T12:40:18.694Z,5.15
2023-05-03T12:45:16.449Z,3.60
2023-05-03T12:47:48.985Z,6.88
2023-05-03T12:50:18.773Z,6.55
2023-05-03T12:52:46.126Z,3.75
2023-05-03T12:55:18.181Z,3.20
2023-05-03T12:58:10.335Z,4.15
2023-05-03T13:00:39.012Z,3.40
2023-05-03T13:03:19.544Z,3.50
2023-05-03T13:05:50.985Z,4.22
2023-05-03T13:08:22.784Z,4.07
2023-05-03T13:10:50.784Z,5.80
2023-05-03T13:13:17.439Z,4.85
2023-05-03T13:15:45.725Z,7.43
2023-05-03T13:18:14.698Z,3.03
2023-05-03T13:20:42.435Z,4.32
2023-05-03T13:23:09.233Z,2.90
2023-05-03T13:25:35.965Z,4.53
2023-05-03T13:28:03.036Z,5.05
2023-05-03T13:30:30.736Z,6.68
2023-05-03T13:32:57.315Z,5.40
2023-05-03T13:35:25.795Z,6.05
2023-05-03T13:37:53.326Z,5.75
2023-05-03T13:40:24.723Z,3.50
2023-05-03T13:42:51.847Z,5.88
2023-05-03T13:45:19.369Z,3.85
2023-05-03T13:50:15.935Z,3.40
2023-05-03T13:52:44.807Z,4.97
2023-05-03T13:55:11.689Z,5.22
2023-05-03T13:57:38.332Z,3.80
2023-05-03T14:00:07.203Z,3.55
2023-05-03T14:02:34.493Z,5.68
2023-05-03T14:05:05.939Z,2.67
2023-05-03T14:07:32.782Z,4.03
2023-05-03T14:10:00.651Z,3.25
2023-05-03T14:14:55.342Z,2.95
2023-05-03T14:17:21.974Z,5.50
2023-05-03T14:19:51.024Z,4.63
2023-05-03T14:22:17.639Z,4.57
2023-05-03T14:24:44.291Z,3.72
2023-05-03T14:27:13.318Z,4.95
2023-05-03T14:29:40.319Z,4.75
2023-05-03T14:32:07.078Z,4.20
2023-05-03T14:34:33.719Z,3.88
2023-05-03T14:37:00.412Z,3.33
2023-05-03T14:39:27.366Z,5.25
2023-05-03T14:41:55.835Z,3.35
2023-05-03T14:44:23.217Z,4.55
2023-05-03T14:46:59.236Z,6.15
2023-05-03T14:49:26.562Z,4.95
2023-05-03T14:51:53.430Z,7.05
2023-05-03T14:54:26.128Z,6.32
2023-05-03T14:56:54.803Z,5.07
2023-05-03T14:59:21.475Z,4.45
2023-05-03T15:01:48.140Z,8.60
2023-05-03T15:04:15.767Z,5.97
2023-05-03T15:06:42.962Z,5.05
2023-05-03T15:09:12.062Z,4.00
2023-05-03T15:11:41.490Z,4.20
2023-05-03T15:14:10.219Z,4.55
2023-05-03T15:16:37.641Z,4.40
2023-05-03T15:19:04.922Z,3.95
2023-05-03T15:21:31.722Z,6.03
2023-05-03T15:23:58.363Z,4.93
2023-05-03T15:26:25.289Z,4.07
2023-05-03T15:28:52.106Z,6.38
2023-05-03T15:31:22.390Z,4.80
2023-05-03T15:33:49.293Z,4.22
2023-05-03T15:36:16.937Z,3.92
2023-05-03T15:38:44.059Z,4.43
2023-05-03T15:41:10.714Z,5.50
2023-05-03T15:43:37.533Z,3.70
2023-05-03T15:46:05.483Z,4.25
2023-05-03T15:50:59.716Z,6.47
2023-05-03T15:53:27.065Z,4.78
2023-05-03T15:55:58.032Z,5.78
2023-05-03T15:58:25.892Z,3.58
2023-05-03T16:00:52.560Z,5.70
2023-05-03T16:03:19.552Z,4.07
2023-05-03T16:05:46.866Z,4.97
2023-05-03T16:08:13.670Z,4.53
2023-05-03T16:10:40.452Z,3.22
2023-05-03T16:13:08.763Z,3.50
2023-05-03T16:15:38.984Z,4.68
2023-05-03T16:18:06.235Z,6.22
2023-05-03T16:20:32.875Z,7.53
2023-05-03T16:22:59.452Z,3.05
2023-05-03T16:25:26.560Z,5.25
2023-05-03T16:27:53.217Z,3.90
2023-05-03T16:30:20.132Z,7.55
2023-05-03T16:32:48.281Z,5.72
2023-05-03T16:35:15.163Z,6.10
2023-05-03T16:37:43.612Z,6.20
2023-05-03T16:40:11.494Z,5.25
2023-05-03T16:42:40.536Z,7.43
2023-05-03T16:45:11.532Z,3.83
2023-05-03T16:47:38.680Z,6.05
2023-05-03T16:50:08.020Z,7.03
2023-05-03T16:52:39.735Z,3.65
2023-05-03T16:55:10.917Z,4.25
2023-05-03T16:57:38.628Z,3.95
2023-05-03T17:00:10.165Z,5.22
2023-05-03T17:02:38.554Z,4.60
2023-05-03T17:05:06.459Z,5.78
2023-05-03T17:07:35.660Z,5.50
2023-05-03T17:10:03.592Z,3.55
2023-05-03T17:14:59.386Z,6.72
2023-05-03T17:17:28.475Z,4.63
2023-05-03T17:19:55.368Z,5.13
2023-05-03T17:22:23.001Z,4.65
2023-05-03T17:24:49.836Z,4.85
2023-05-03T17:27:16.515Z,5.22
2023-05-03T17:29:43.172Z,7.63
2023-05-03T17:32:09.822Z,7.68
2023-05-03T17:34:37.412Z,7.63
2023-05-03T17:37:04.057Z,4.95
2023-05-03T17:39:30.992Z,7.35
2023-05-03T17:41:57.948Z,4.90
2023-05-03T17:44:24.602Z,5.75
2023-05-03T17:46:51.676Z,5.43
2023-05-03T17:49:22.205Z,4.97
2023-05-03T17:51:49.797Z,5.55
2023-05-03T17:54:16.492Z,5.47
2023-05-03T17:56:45.849Z,6.63
2023-05-03T17:59:12.470Z,4.75
2023-05-03T18:01:39.063Z,4.82
2023-05-03T18:04:05.837Z,7.82
2023-05-03T18:06:32.605Z,4.38
2023-05-03T18:08:59.264Z,6.47
2023-05-03T18:11:25.979Z,6.35
2023-05-03T18:13:53.512Z,6.55
2023-05-03T18:16:20.239Z,4.55
2023-05-03T18:18:46.823Z,5.40
2023-05-03T18:21:13.912Z,5.05
2023-05-03T18:23:42.377Z,6.03
2023-05-03T18:26:10.570Z,4.75
2023-05-03T18:28:37.705Z,3.72
2023-05-03T18:31:04.451Z,4.85
2023-05-03T18:33:32.938Z,8.00
2023-05-03T18:38:26.311Z,7.38
2023-05-03T18:40:54.815Z,10.50
2023-05-03T18:43:22.430Z,8.57
2023-05-03T18:45:52.203Z,11.70
2023-05-03T18:48:21.314Z,8.27
2023-05-03T18:50:49.373Z,8.10
2023-05-03T18:53:17.439Z,8.65
2023-05-03T18:55:45.101Z,6.15
2023-05-03T18:58:11.656Z,7.00
2023-05-03T19:00:39.413Z,6.70
2023-05-03T19:03:06.413Z,7.00
2023-05-03T19:05:34.912Z,6.32
2023-05-03T19:08:01.505Z,9.48
2023-05-03T19:10:28.219Z,10.82
2023-05-03T19:12:54.840Z,7.63
2023-05-03T19:15:22.553Z,8.40
2023-05-03T19:17:49.275Z,8.98
2023-05-03T19:20:16.393Z,7.72
2023-05-03T19:22:43.987Z,7.00
2023-05-03T19:25:10.818Z,5.55
2023-05-03T19:27:39.694Z,8.25
2023-05-03T19:30:07.275Z,9.07
2023-05-03T19:32:39.098Z,5.30
2023-05-03T19:35:08.774Z,11.85
2023-05-03T19:37:35.699Z,16.42
2023-05-03T19:40:02.615Z,21.55
2023-05-03T19:42:29.854Z,16.92
2023-05-03T19:44:56.489Z,12.02
2023-05-03T19:47:23.664Z,8.70
2023-05-03T19:49:50.529Z,9.13
2023-05-03T19:52:17.415Z,6.80
2023-05-03T19:54:44.290Z,7.85
2023-05-03T19:57:11.962Z,13.38
2023-05-03T19:59:38.590Z,13.85
2023-05-03T20:02:05.722Z,11.57
2023-05-03T20:04:32.886Z,9.10
2023-05-03T20:07:00.899Z,13.38
2023-05-03T20:09:30.883Z,15.93
2023-05-03T20:11:58.858Z,13.32
2023-05-03T20:14:29.100Z,7.95
2023-05-03T20:16:58.271Z,7.57
2023-05-03T20:19:26.137Z,7.63
2023-05-03T20:21:52.929Z,10.88
2023-05-03T20:24:23.112Z,12.45
2023-05-03T20:26:50.467Z,10.70
2023-05-03T20:29:18.209Z,11.45
2023-05-03T20:31:47.415Z,13.02
2023-05-03T20:34:15.001Z,12.43
2023-05-03T20:36:41.722Z,10.27
2023-05-03T20:39:09.702Z,9.02
2023-05-03T20:41:36.420Z,10.02
2023-05-03T20:44:04.131Z,9.13
2023-05-03T20:46:30.968Z,9.00
2023-05-03T20:49:01.658Z,8.02
2023-05-03T20:51:28.203Z,9.20
2023-05-03T20:53:54.834Z,9.10
2023-05-03T20:56:22.410Z,9.45
2023-05-03T20:58:50.622Z,12.35
2023-05-03T21:01:17.871Z,11.35
2023-05-03T21:03:44.619Z,9.18
2023-05-03T21:06:11.179Z,8.93
2023-05-03T21:08:37.829Z,8.52
2023-05-03T21:11:04.452Z,6.28
2023-05-03T21:13:31.213Z,7.90
2023-05-03T21:15:57.967Z,8.82
2023-05-03T21:18:25.022Z,9.25
2023-05-03T21:20:53.576Z,9.50
2023-05-03T21:23:20.405Z,8.75
2023-05-03T21:25:46.962Z,8.23
2023-05-03T21:28:13.571Z,9.02
2023-05-03T21:30:42.240Z,9.05
2023-05-03T21:33:08.950Z,11.00
2023-05-03T21:35:35.667Z,11.00
2023-05-03T21:38:02.240Z,7.38
2023-05-03T21:40:28.924Z,8.15
2023-05-03T21:42:55.606Z,8.27
2023-05-03T21:45:23.241Z,9.77
2023-05-03T21:47:50.348Z,11.65
2023-05-03T21:50:16.974Z,14.43
2023-05-03T21:52:43.933Z,10.13
2023-05-03T21:55:10.606Z,10.23
2023-05-03T21:57:37.945Z,7.38
2023-05-03T22:00:05.790Z,6.60
2023-05-03T22:02:32.729Z,7.32
2023-05-03T22:04:59.409Z,8.88
2023-05-03T22:07:26.124Z,11.07
2023-05-03T22:09:52.832Z,10.43
2023-05-03T22:12:23.910Z,9.20
2023-05-03T22:14:51.196Z,12.52
2023-05-03T22:17:18.000Z,13.05
2023-05-03T22:19:44.803Z,10.93
2023-05-03T22:22:11.548Z,13.45
2023-05-03T22:24:38.223Z,18.42
2023-05-03T22:27:04.818Z,18.25
2023-05-03T22:29:31.649Z,15.30
2023-05-03T22:31:59.005Z,11.98
2023-05-03T22:34:25.691Z,15.95
2023-05-03T22:36:52.261Z,16.60
2023-05-03T22:39:18.967Z,22.25
2023-05-03T22:41:46.061Z,17.00
2023-05-03T22:44:13.205Z,17.50
2023-05-03T22:46:39.992Z,17.30
2023-05-03T22:49:07.423Z,19.73
2023-05-03T22:51:34.113Z,19.65
2023-05-03T22:54:00.945Z,18.65
2023-05-03T22:56:27.501Z,16.33
2023-05-03T22:58:54.115Z,21.05
2023-05-03T23:01:20.852Z,17.13
2023-05-03T23:03:47.655Z,20.10
2023-05-03T23:06:14.951Z,15.65
2023-05-03T23:08:41.589Z,14.13
2023-05-03T23:11:08.353Z,14.65
2023-05-03T23:13:35.378Z,16.48
2023-05-03T23:16:02.259Z,19.42
2023-05-03T23:18:29.107Z,18.45
2023-05-03T23:20:55.776Z,15.82
2023-05-03T23:23:22.395Z,21.05
2023-05-03T23:25:49.078Z,20.75
2023-05-03T23:28:15.794Z,21.52
2023-05-03T23:30:44.287Z,23.90
2023-05-03T23:33:11.400Z,28.95
2023-05-03T23:35:38.588Z,23.75
2023-05-03T23:38:05.254Z,18.67
2023-05-03T23:40:32.018Z,21.38
2023-05-03T23:42:58.628Z,27.80
2023-05-03T23:45:27.044Z,24.08
2023-05-03T23:47:53.942Z,21.58
2023-05-03T23:50:20.763Z,22.73
2023-05-03T23:52:47.685Z,25.58
2023-05-03T23:55:14.556Z,31.52
2023-05-03T23:57:41.442Z,28.02
